createdAt,value
2022-08-21T00:04:22.373Z,20.76
2022-08-21T00:09:25.192Z,20.79
2022-08-21T00:14:31.432Z,20.75
2022-08-21T00:19:38.011Z,20.63
2022-08-21T00:24:43.577Z,20.54
2022-08-21T00:29:49.046Z,20.56
2022-08-21T00:34:55.536Z,20.54
2022-08-21T00:40:01.383Z,20.44
2022-08-21T00:45:08.171Z,20.42
2022-08-21T00:50:15.058Z,20.43
2022-08-21T00:55:24.187Z,20.36
2022-08-21T01:00:33.175Z,20.32
2022-08-21T01:05:39.795Z,20.30
2022-08-21T01:10:45.995Z,20.28
2022-08-21T01:15:54.484Z,20.29
2022-08-21T01:21:12.785Z,20.29
2022-08-21T01:26:22.102Z,20.28
2022-08-21T01:31:29.558Z,20.24
2022-08-21T01:36:35.277Z,20.24
2022-08-21T01:41:40.844Z,20.23
2022-08-21T01:46:46.326Z,20.24
2022-08-21T01:51:52.055Z,20.25
2022-08-21T01:56:58.155Z,20.16
2022-08-21T02:02:04.581Z,20.13
2022-08-21T02:07:10.459Z,20.18
2022-08-21T02:12:15.997Z,20.16
2022-08-21T02:17:21.533Z,20.18
2022-08-21T02:22:27.031Z,20.17
2022-08-21T02:27:35.664Z,20.10
2022-08-21T02:32:43.657Z,20.06
2022-08-21T02:37:52.867Z,20.08
2022-08-21T02:42:59.318Z,20.03
2022-08-21T02:48:08.005Z,20.01
2022-08-21T02:53:16.946Z,20.01
2022-08-21T02:58:25.505Z,19.99
2022-08-21T03:03:31.894Z,19.99
2022-08-21T03:08:38.673Z,19.92
2022-08-21T03:13:44.867Z,19.95
2022-08-21T03:18:50.435Z,19.93
2022-08-21T03:23:56.008Z,19.88
2022-08-21T03:29:01.572Z,19.87
2022-08-21T03:34:07.122Z,19.86
2022-08-21T03:39:12.688Z,19.79
2022-08-21T03:44:18.186Z,19.67
2022-08-21T03:49:23.942Z,19.64
2022-08-21T03:54:29.582Z,19.59
2022-08-21T03:59:36.992Z,19.56
2022-08-21T04:04:43.171Z,19.54
2022-08-21T04:09:48.735Z,19.53
2022-08-21T04:14:54.301Z,19.37
2022-08-21T04:20:00.177Z,19.47
2022-08-21T04:25:06.506Z,19.42
2022-08-21T04:30:13.564Z,19.44
2022-08-21T04:35:21.663Z,19.48
2022-08-21T04:40:29.475Z,19.55
2022-08-21T04:45:38.320Z,19.57
2022-08-21T04:50:49.541Z,19.53
2022-08-21T04:55:58.093Z,19.44
2022-08-21T05:01:06.502Z,19.50
2022-08-21T05:06:14.733Z,19.57
2022-08-21T05:11:21.171Z,19.56
2022-08-21T05:16:36.659Z,19.48
2022-08-21T05:21:40.106Z,19.55
2022-08-21T05:26:46.714Z,19.54
2022-08-21T05:31:53.810Z,19.56
2022-08-21T05:37:00.602Z,19.55
2022-08-21T05:42:06.789Z,19.55
2022-08-21T05:47:13.461Z,19.63
2022-08-21T05:52:23.088Z,19.67
2022-08-21T05:57:29.111Z,19.76
2022-08-21T06:02:34.671Z,19.82
2022-08-21T06:07:40.139Z,19.93
2022-08-21T06:12:45.906Z,19.90
2022-08-21T06:17:51.591Z,20.03
2022-08-21T06:22:57.430Z,20.14
2022-08-21T06:28:08.874Z,20.22
2022-08-21T06:33:14.425Z,20.28
2022-08-21T06:38:21.614Z,20.19
2022-08-21T06:43:39.787Z,20.33
2022-08-21T06:48:35.306Z,20.53
2022-08-21T06:53:40.869Z,20.61
2022-08-21T06:58:46.547Z,20.77
2022-08-21T07:03:52.346Z,20.86
2022-08-21T07:08:58.967Z,20.93
2022-08-21T07:14:04.894Z,20.94
2022-08-21T07:19:10.435Z,21.10
2022-08-21T07:24:16.506Z,21.09
2022-08-21T07:29:22.090Z,21.12
2022-08-21T07:34:27.643Z,21.10
2022-08-21T07:39:33.211Z,21.15
2022-08-21T07:44:39.077Z,21.27
2022-08-21T07:49:45.051Z,21.35
2022-08-21T07:54:50.616Z,21.42
2022-08-21T07:59:56.896Z,21.50
2022-08-21T08:05:04.620Z,21.55
2022-08-21T08:10:11.561Z,21.68
2022-08-21T08:15:20.456Z,21.83
2022-08-21T08:20:27.958Z,21.87
2022-08-21T08:25:36.778Z,21.79
2022-08-21T08:30:40.831Z,22.00
2022-08-21T08:35:48.934Z,22.22
2022-08-21T08:41:09.783Z,22.35
2022-08-21T08:46:18.531Z,22.32
2022-08-21T08:51:30.020Z,22.41
2022-08-21T08:56:36.275Z,22.53
2022-08-21T09:01:42.427Z,22.44
2022-08-21T09:07:00.286Z,22.50
2022-08-21T09:12:20.952Z,22.58
2022-08-21T09:18:05.422Z,22.68
2022-08-21T09:23:39.974Z,22.77
2022-08-21T09:28:47.584Z,22.94
2022-08-21T09:33:54.579Z,23.07
2022-08-21T09:39:00.149Z,23.30
2022-08-21T09:44:07.768Z,23.18
2022-08-21T09:49:14.460Z,23.16
2022-08-21T09:54:23.902Z,23.10
2022-08-21T09:59:38.456Z,23.46
2022-08-21T10:04:47.122Z,23.73
2022-08-21T10:10:11.168Z,23.70
2022-08-21T10:15:25.691Z,23.86
2022-08-21T10:20:48.976Z,23.95
2022-08-21T10:26:30.273Z,23.95
2022-08-21T10:31:53.762Z,24.04
2022-08-21T10:37:20.485Z,24.20
2022-08-21T10:42:45.249Z,24.38
2022-08-21T10:47:59.714Z,24.28
2022-08-21T10:53:14.420Z,24.38
2022-08-21T10:58:35.580Z,24.23
2022-08-21T11:03:50.007Z,24.22
2022-08-21T11:09:02.115Z,24.09
2022-08-21T11:14:17.064Z,24.23
2022-08-21T11:19:34.847Z,24.20
2022-08-21T11:24:47.688Z,24.26
2022-08-21T11:29:56.318Z,24.38
2022-08-21T11:35:24.721Z,24.63
2022-08-21T11:40:49.573Z,24.64
2022-08-21T11:45:58.121Z,24.71
2022-08-21T11:51:09.295Z,24.69
2022-08-21T11:56:17.909Z,24.54
2022-08-21T12:01:26.655Z,24.76
2022-08-21T12:06:36.915Z,25.00
2022-08-21T12:11:50.590Z,25.09
2022-08-21T12:17:00.945Z,25.16
2022-08-21T12:22:10.403Z,25.32
2022-08-21T12:27:27.032Z,25.30
2022-08-21T12:32:50.424Z,25.31
2022-08-21T12:38:11.260Z,25.48
2022-08-21T12:43:19.865Z,25.36
2022-08-21T12:48:37.214Z,25.31
2022-08-21T12:53:51.681Z,25.28
2022-08-21T12:59:01.248Z,25.30
2022-08-21T13:04:09.876Z,25.38
2022-08-21T13:09:21.280Z,25.24
2022-08-21T13:14:45.960Z,25.54
2022-08-21T13:20:23.231Z,25.63
2022-08-21T13:25:31.767Z,25.72
2022-08-21T13:30:39.342Z,25.54
2022-08-21T13:35:53.858Z,25.11
2022-08-21T13:41:05.837Z,25.16
2022-08-21T13:46:14.652Z,25.11
2022-08-21T13:51:20.922Z,25.04
2022-08-21T13:56:30.317Z,24.90
2022-08-21T14:01:58.756Z,24.66
2022-08-21T14:07:06.782Z,24.80
2022-08-21T14:12:30.422Z,24.68
2022-08-21T14:17:42.579Z,24.70
2022-08-21T14:22:50.342Z,24.57
2022-08-21T14:28:09.865Z,24.60
2022-08-21T14:33:30.732Z,24.64
2022-08-21T14:38:39.373Z,24.45
2022-08-21T14:43:46.242Z,24.51
2022-08-21T14:48:52.204Z,24.47
2022-08-21T14:53:57.942Z,24.60
2022-08-21T14:59:06.379Z,24.66
2022-08-21T15:04:12.269Z,24.83
2022-08-21T15:09:18.425Z,24.93
2022-08-21T15:14:26.694Z,25.04
2022-08-21T15:19:32.526Z,24.98
2022-08-21T15:24:38.649Z,24.93
2022-08-21T15:29:44.927Z,24.97
2022-08-21T15:34:51.182Z,24.89
2022-08-21T15:39:56.934Z,24.90
2022-08-21T15:45:03.211Z,24.90
2022-08-21T15:50:10.872Z,24.75
2022-08-21T15:55:16.491Z,24.71
2022-08-21T16:00:25.365Z,24.74
2022-08-21T16:05:31.707Z,24.75
2022-08-21T16:10:39.545Z,24.61
2022-08-21T16:15:45.102Z,24.49
2022-08-21T16:20:51.177Z,24.63
2022-08-21T16:25:56.951Z,24.79
2022-08-21T16:31:04.382Z,24.79
2022-08-21T16:36:10.733Z,25.03
2022-08-21T16:41:20.736Z,24.95
2022-08-21T16:46:26.693Z,24.94
2022-08-21T16:51:32.258Z,24.84
2022-08-21T16:56:40.447Z,24.89
2022-08-21T17:01:46.757Z,24.89
2022-08-21T17:06:53.339Z,24.85
2022-08-21T17:11:59.115Z,24.70
2022-08-21T17:17:06.913Z,24.62
2022-08-21T17:22:12.997Z,24.58
2022-08-21T17:27:21.390Z,24.53
2022-08-21T17:32:28.851Z,24.43
2022-08-21T17:37:34.419Z,24.33
2022-08-21T17:42:42.465Z,24.18
2022-08-21T17:47:48.312Z,24.15
2022-08-21T17:52:54.439Z,24.05
2022-08-21T17:58:01.582Z,23.93
2022-08-21T18:03:11.959Z,23.88
2022-08-21T18:08:17.759Z,23.78
2022-08-21T18:13:29.646Z,23.66
2022-08-21T18:18:40.934Z,23.57
2022-08-21T18:23:46.613Z,23.36
2022-08-21T18:28:52.305Z,23.14
2022-08-21T18:33:59.311Z,22.96
2022-08-21T18:39:34.307Z,22.81
2022-08-21T18:44:13.914Z,22.63
2022-08-21T18:49:19.967Z,22.46
2022-08-21T18:54:26.569Z,22.28
2022-08-21T19:04:44.179Z,21.98
2022-08-21T19:10:01.921Z,21.84
2022-08-21T19:14:54.059Z,21.66
2022-08-21T19:20:03.839Z,21.49
2022-08-21T19:25:10.929Z,21.35
2022-08-21T19:30:17.443Z,21.22
2022-08-21T19:35:24.485Z,21.10
2022-08-21T19:40:30.192Z,20.96
2022-08-21T19:45:37.593Z,20.80
2022-08-21T19:50:44.878Z,20.65
2022-08-21T20:00:57.793Z,20.39
2022-08-21T20:06:03.511Z,20.29
2022-08-21T20:11:09.482Z,20.20
2022-08-21T20:16:17.249Z,20.09
2022-08-21T20:21:22.864Z,19.98
2022-08-21T20:26:29.024Z,19.96
2022-08-21T20:31:34.708Z,19.89
2022-08-21T20:36:42.020Z,19.81
2022-08-21T20:41:49.216Z,19.74
2022-08-21T20:46:54.911Z,19.66
2022-08-21T20:52:01.260Z,19.56
2022-08-21T20:57:24.551Z,19.47
2022-08-21T21:02:38.920Z,19.40
2022-08-21T21:07:56.574Z,19.33
2022-08-21T21:13:07.892Z,19.27
2022-08-21T21:18:16.498Z,19.23
2022-08-21T21:23:33.950Z,19.18
2022-08-21T21:28:48.525Z,19.10
2022-08-21T21:33:56.517Z,19.01
2022-08-21T21:39:17.046Z,18.94
2022-08-21T21:44:26.005Z,18.86
2022-08-21T21:49:40.578Z,18.83
2022-08-21T21:54:58.226Z,18.81
2022-08-21T22:00:11.159Z,18.74
2022-08-21T22:05:49.106Z,18.66
2022-08-21T22:11:08.862Z,18.64
2022-08-21T22:16:13.916Z,18.60
2022-08-21T22:21:24.102Z,18.56
2022-08-21T22:26:35.409Z,18.52
2022-08-21T22:31:41.895Z,18.51
2022-08-21T22:36:51.869Z,18.53
2022-08-21T22:41:59.165Z,18.52
2022-08-21T22:47:08.798Z,18.49
2022-08-21T22:52:24.796Z,18.44
2022-08-21T22:57:34.907Z,18.40
2022-08-21T23:02:52.537Z,18.29
2022-08-21T23:08:23.859Z,18.17
2022-08-21T23:13:25.290Z,18.12
2022-08-21T23:18:52.150Z,18.07
2022-08-21T23:24:34.679Z,17.96
2022-08-21T23:29:47.040Z,17.86
2022-08-21T23:35:06.186Z,17.89
2022-08-21T23:40:30.498Z,17.90
2022-08-21T23:45:48.767Z,17.83
2022-08-21T23:50:57.842Z,17.81
2022-08-21T23:56:11.443Z,17.80
